createdAt,value
2016-10-07T14:26:46.364Z,927.92
2016-10-07T14:27:47.034Z,927.9
2016-10-07T14:28:46.476Z,927.91
2016-10-07T14:29:46.521Z,927.91
2016-10-07T14:30:46.887Z,927.93
2016-10-07T14:31:46.644Z,927.92
2016-10-07T14:32:46.716Z,927.96
2016-10-07T14:33:46.769Z,927.9
2016-10-07T14:34:46.825Z,927.95
2016-10-07T14:35:46.852Z,927.92
2016-10-07T14:36:46.908Z,927.9
2016-10-07T14:37:46.965Z,927.91
2016-10-07T14:38:47.024Z,927.87
2016-10-07T14:39:47.077Z,927.88
2016-10-07T14:40:47.130Z,927.89
2016-10-07T14:41:47.173Z,927.84
2016-10-07T14:42:47.244Z,927.84
2016-10-07T14:43:47.282Z,927.78
2016-10-07T14:44:47.339Z,927.81
2016-10-07T14:45:47.400Z,927.85
2016-10-07T14:46:47.458Z,927.77
2016-10-07T14:47:47.515Z,927.79
2016-10-07T14:48:47.587Z,927.82
2016-10-07T14:49:47.613Z,927.83
2016-10-07T14:50:47.650Z,927.79
2016-10-07T14:51:47.719Z,927.79
2016-10-07T14:52:47.772Z,927.81
2016-10-07T14:53:47.830Z,927.76
2016-10-07T14:54:47.874Z,927.8
2016-10-07T14:55:47.939Z,927.77
2016-10-07T14:56:47.998Z,927.75
2016-10-07T14:57:48.034Z,927.74
2016-10-07T14:58:48.112Z,927.73
2016-10-07T14:59:48.159Z,927.75
2016-10-07T15:00:48.398Z,927.72
2016-10-07T15:01:48.364Z,927.7
2016-10-07T15:02:48.315Z,927.71
2016-10-07T15:03:48.555Z,927.66
2016-10-07T15:04:48.415Z,927.66
2016-10-07T15:05:48.480Z,927.62
2016-10-07T15:06:48.524Z,927.62
2016-10-07T15:07:48.577Z,927.64
2016-10-07T15:08:48.654Z,927.61
2016-10-07T15:09:48.690Z,927.6
2016-10-07T15:10:48.731Z,927.63
2016-10-07T15:11:48.812Z,927.63
2016-10-07T15:12:48.843Z,927.67
2016-10-07T15:13:48.901Z,927.68
2016-10-07T15:14:48.964Z,927.67
2016-10-07T15:15:49.038Z,927.63
2016-10-07T15:16:49.085Z,927.62
2016-10-07T15:17:49.138Z,927.64
2016-10-07T15:18:49.179Z,927.61
2016-10-07T15:19:49.215Z,927.61
2016-10-07T15:20:49.306Z,927.61
2016-10-07T15:21:49.346Z,927.59
2016-10-07T15:22:49.407Z,927.56
2016-10-07T15:23:49.462Z,927.55
2016-10-07T15:24:49.711Z,927.54
2016-10-07T15:25:49.575Z,927.55
2016-10-07T15:26:49.620Z,927.51
2016-10-07T15:27:49.661Z,927.51
2016-10-07T15:28:49.726Z,927.46
2016-10-07T15:29:49.777Z,927.5
2016-10-07T15:30:49.813Z,927.49
2016-10-07T15:31:49.866Z,927.46
2016-10-07T15:32:49.921Z,927.47
2016-10-07T15:33:50.001Z,927.46
2016-10-07T15:34:50.027Z,927.38
2016-10-07T15:35:50.094Z,927.35
2016-10-07T15:36:50.154Z,927.35
2016-10-07T15:37:50.301Z,927.33
2016-10-07T15:38:50.253Z,927.31
2016-10-07T15:39:50.504Z,927.29
2016-10-07T15:40:50.365Z,927.26
2016-10-07T15:41:50.405Z,927.26
2016-10-07T15:42:50.478Z,927.28
2016-10-07T15:43:50.513Z,927.24
2016-10-07T15:44:50.568Z,927.32
2016-10-07T15:45:50.628Z,927.29
2016-10-07T15:46:50.686Z,927.28
2016-10-07T15:47:50.750Z,927.32
2016-10-07T15:48:50.821Z,927.37
2016-10-07T15:49:50.840Z,927.39
2016-10-07T15:50:50.901Z,927.37
2016-10-07T15:51:50.947Z,927.37
2016-10-07T15:52:51.005Z,927.39
2016-10-07T15:53:51.056Z,927.4
2016-10-07T15:54:51.140Z,927.45
2016-10-07T15:55:51.200Z,927.38
2016-10-07T15:56:51.251Z,927.4
2016-10-07T15:57:51.308Z,927.44
2016-10-07T15:58:51.362Z,927.37
2016-10-07T15:59:51.409Z,927.3
2016-10-07T16:00:51.442Z,927.35
2016-10-07T16:01:51.517Z,927.35
2016-10-07T16:02:51.579Z,927.35
2016-10-07T16:03:51.619Z,927.34
2016-10-07T16:04:51.856Z,927.33
2016-10-07T16:05:51.716Z,927.3
2016-10-07T16:06:51.772Z,927.33
2016-10-07T16:07:51.815Z,927.3
2016-10-07T16:08:51.984Z,927.3
2016-10-07T16:09:51.935Z,927.24
2016-10-07T16:10:51.986Z,927.21
2016-10-07T16:11:52.029Z,927.25
2016-10-07T16:12:52.092Z,927.25
2016-10-07T16:13:52.138Z,927.19
2016-10-07T16:14:52.219Z,927.24
2016-10-07T16:15:52.262Z,927.23
2016-10-07T16:16:52.298Z,927.22
2016-10-07T16:17:52.387Z,927.17
2016-10-07T16:18:52.419Z,927.28
2016-10-07T16:19:52.468Z,927.22
2016-10-07T16:20:52.526Z,927.22
2016-10-07T16:21:52.601Z,927.24
2016-10-07T16:22:52.624Z,927.2
2016-10-07T16:23:52.683Z,927.21
2016-10-07T16:24:52.748Z,927.22
2016-10-07T16:25:52.799Z,927.19
2016-10-07T16:26:52.858Z,927.1
2016-10-07T16:27:52.895Z,927.11
2016-10-07T16:28:52.956Z,927.11
2016-10-07T16:29:53.018Z,927.08
2016-10-07T16:30:53.053Z,927.07
2016-10-07T16:31:53.122Z,927.03
2016-10-07T16:32:53.188Z,927.06
2016-10-07T16:33:53.231Z,927
2016-10-07T16:34:53.286Z,927.04
2016-10-07T16:35:53.355Z,927.09
2016-10-07T16:36:53.378Z,927.07
2016-10-07T16:37:53.442Z,927.06
2016-10-07T16:38:53.494Z,927.06
2016-10-07T16:39:53.549Z,927.12
2016-10-07T16:40:53.596Z,927.1
2016-10-07T16:41:53.651Z,927.1
2016-10-07T16:42:53.710Z,927.11
2016-10-07T16:43:53.772Z,927.12
2016-10-07T16:44:57.747Z,927.1
2016-10-07T16:45:53.899Z,927.03
2016-10-07T16:46:53.930Z,927.06
2016-10-07T16:47:53.977Z,927.02
2016-10-07T16:48:54.064Z,927.06
2016-10-07T16:49:54.089Z,927.04
2016-10-07T16:50:54.150Z,927.02
2016-10-07T16:51:54.201Z,927.05
2016-10-07T16:52:54.251Z,927.01
2016-10-07T16:53:54.327Z,926.98
2016-10-07T16:54:54.357Z,926.98
2016-10-07T16:55:54.417Z,926.96
2016-10-07T16:56:54.482Z,926.96
2016-10-07T16:57:54.536Z,927
2016-10-07T16:58:54.593Z,926.98
2016-10-07T16:59:54.633Z,926.97
2016-10-07T17:00:54.709Z,926.97
2016-10-07T17:01:54.753Z,926.97
2016-10-07T17:02:54.820Z,926.93
2016-10-07T17:03:54.889Z,926.92
2016-10-07T17:04:54.930Z,926.87
2016-10-07T17:05:54.974Z,926.95
2016-10-07T17:06:55.019Z,926.94
2016-10-07T17:07:55.083Z,926.97
2016-10-07T17:08:55.147Z,926.94
2016-10-07T17:09:55.202Z,926.94
2016-10-07T17:10:55.354Z,927.01
2016-10-07T17:11:55.309Z,927.02
2016-10-07T17:12:55.363Z,927
2016-10-07T17:13:55.417Z,927.05
2016-10-07T17:14:55.455Z,927
2016-10-07T17:15:55.598Z,927
2016-10-07T17:16:55.566Z,927.02
2016-10-07T17:17:55.606Z,927.04
2016-10-07T17:18:55.704Z,927.07
2016-10-07T17:19:55.723Z,927.01
2016-10-07T17:20:55.778Z,927.07
2016-10-07T17:21:55.822Z,926.99
2016-10-07T17:22:55.880Z,927.06
2016-10-07T17:23:55.956Z,926.96
2016-10-07T17:24:55.993Z,927.04
2016-10-07T17:25:56.039Z,927
2016-10-07T17:26:56.104Z,927.01
2016-10-07T17:27:56.151Z,927.04
2016-10-07T17:28:56.201Z,927.04
2016-10-07T17:29:56.269Z,926.94
2016-10-07T17:30:56.318Z,927.02
2016-10-07T17:31:56.366Z,927.07
2016-10-07T17:32:56.440Z,927.06
2016-10-07T17:33:56.484Z,927.05
2016-10-07T17:34:56.530Z,927.06
2016-10-07T17:35:56.580Z,927.05
2016-10-07T17:36:56.653Z,927.01
2016-10-07T17:37:56.703Z,926.99
2016-10-07T17:38:56.750Z,927.03
2016-10-07T17:39:56.827Z,926.97
2016-10-07T17:40:56.854Z,926.96
2016-10-07T17:41:56.913Z,926.97
2016-10-07T17:42:56.990Z,926.96
2016-10-07T17:43:57.024Z,926.97
2016-10-07T17:44:57.071Z,927.02
2016-10-07T17:45:57.137Z,926.98
2016-10-07T17:46:57.203Z,927.02
2016-10-07T17:47:57.254Z,927.03
2016-10-07T17:48:57.312Z,926.99
2016-10-07T17:49:57.342Z,926.99
2016-10-07T17:50:57.396Z,927.01
2016-10-07T17:51:57.547Z,927.04
2016-10-07T17:52:57.505Z,927.07
2016-10-07T17:53:57.588Z,927.04
2016-10-07T17:54:57.609Z,927.12
2016-10-07T17:55:57.703Z,927.06
2016-10-07T17:56:57.827Z,927.03
2016-10-07T17:57:57.769Z,927.07
2016-10-07T17:58:57.829Z,927
2016-10-07T17:59:57.877Z,927.05
2016-10-07T18:00:57.961Z,927.02
2016-10-07T18:01:58.003Z,926.99
2016-10-07T18:02:58.047Z,927.04
2016-10-07T18:03:58.095Z,927.09
2016-10-07T18:04:58.161Z,927.11
2016-10-07T18:05:58.210Z,927.13
2016-10-07T18:06:58.284Z,927.15
2016-10-07T18:07:58.317Z,927.08
2016-10-07T18:08:58.386Z,927.1
2016-10-07T18:09:58.415Z,927.11
2016-10-07T18:10:58.482Z,927.15
2016-10-07T18:11:58.519Z,927.12
2016-10-07T18:12:58.598Z,927.19
2016-10-07T18:13:58.650Z,927.14
2016-10-07T18:14:58.687Z,927.14
2016-10-07T18:15:58.770Z,927.1
2016-10-07T18:16:58.791Z,927.12
2016-10-07T18:17:58.842Z,927.11
2016-10-07T18:18:58.919Z,927.15
2016-10-07T18:19:58.949Z,927.16
2016-10-07T18:20:59.005Z,927.21
2016-10-07T18:21:59.059Z,927.14
2016-10-07T18:22:59.106Z,927.15
2016-10-07T18:23:59.163Z,927.16
2016-10-07T18:24:59.213Z,927.14
2016-10-07T18:25:59.279Z,927.15
2016-10-07T18:26:59.334Z,927.25
2016-10-07T18:27:59.375Z,927.21
2016-10-07T18:28:59.454Z,927.15
2016-10-07T18:29:59.492Z,927.12
2016-10-07T18:30:59.540Z,927.16
2016-10-07T18:31:59.593Z,927.1
2016-10-07T18:32:59.651Z,927.12
2016-10-07T18:33:59.706Z,927.15
2016-10-07T18:34:59.776Z,927.17
2016-10-07T18:35:59.841Z,927.15
2016-10-07T18:36:59.864Z,927.22
2016-10-07T18:37:59.949Z,927.12
2016-10-07T18:38:59.977Z,927.19
2016-10-07T18:40:00.022Z,927.17
2016-10-07T18:41:00.106Z,927.18
2016-10-07T18:42:00.154Z,927.19
2016-10-07T18:43:00.213Z,927.14
2016-10-07T18:44:00.266Z,927.16
2016-10-07T18:45:00.307Z,927.15
2016-10-07T18:46:00.357Z,927.14
2016-10-07T18:47:00.402Z,927.18
2016-10-07T18:48:00.465Z,927.2
2016-10-07T18:49:00.508Z,927.17
2016-10-07T18:50:00.587Z,927.23
2016-10-07T18:51:00.646Z,927.17
2016-10-07T18:52:00.671Z,927.21
2016-10-07T18:53:00.739Z,927.27
2016-10-07T18:54:00.792Z,927.35
2016-10-07T18:55:00.857Z,927.27
2016-10-07T18:56:00.911Z,927.32
2016-10-07T18:57:00.967Z,927.35
2016-10-07T18:58:01.024Z,927.38
2016-10-07T18:59:01.053Z,927.36
2016-10-07T19:00:01.098Z,927.32
2016-10-07T19:01:01.182Z,927.36
2016-10-07T19:02:01.235Z,927.38
2016-10-07T19:03:01.267Z,927.33
2016-10-07T19:04:01.324Z,927.31
2016-10-07T19:05:01.368Z,927.31
2016-10-07T19:06:01.452Z,927.31
2016-10-07T19:07:01.487Z,927.27
2016-10-07T19:08:01.541Z,927.32
2016-10-07T19:09:01.583Z,927.27
2016-10-07T19:10:01.653Z,927.3
2016-10-07T19:11:01.714Z,927.28
2016-10-07T19:12:01.767Z,927.28
2016-10-07T19:13:01.828Z,927.3
2016-10-07T19:14:01.870Z,927.31
2016-10-07T19:15:01.931Z,927.32
2016-10-07T19:16:01.959Z,927.3
2016-10-07T19:17:02.046Z,927.28
2016-10-07T19:18:02.072Z,927.3
2016-10-07T19:19:02.128Z,927.35
2016-10-07T19:20:02.171Z,927.32
2016-10-07T19:21:02.250Z,927.34
2016-10-07T19:22:02.274Z,927.29
2016-10-07T19:23:02.327Z,927.32
2016-10-07T19:24:02.398Z,927.3
2016-10-07T19:25:02.445Z,927.29
2016-10-07T19:26:02.520Z,927.25
2016-10-07T19:27:02.544Z,927.28
2016-10-07T19:28:02.608Z,927.29
2016-10-07T19:29:02.658Z,927.28
2016-10-07T19:30:02.699Z,927.27
2016-10-07T19:31:02.773Z,927.32
2016-10-07T19:32:02.818Z,927.25
2016-10-07T19:33:02.861Z,927.27
2016-10-07T19:34:02.929Z,927.29
2016-10-07T19:35:02.980Z,927.28
2016-10-07T19:36:03.021Z,927.3
2016-10-07T19:37:03.096Z,927.3
2016-10-07T19:38:03.129Z,927.3
2016-10-07T19:39:03.206Z,927.31
2016-10-07T19:40:03.271Z,927.29
2016-10-07T19:41:03.311Z,927.36
2016-10-07T19:42:03.364Z,927.32
2016-10-07T19:43:03.404Z,927.33
2016-10-07T19:44:03.450Z,927.32
2016-10-07T19:45:03.514Z,927.35
2016-10-07T19:46:03.562Z,927.34
2016-10-07T19:47:03.642Z,927.37
2016-10-07T19:48:03.658Z,927.39
2016-10-07T19:49:03.719Z,927.42
2016-10-07T19:50:03.794Z,927.4
2016-10-07T19:51:03.845Z,927.39
2016-10-07T19:52:03.880Z,927.38
2016-10-07T19:53:03.920Z,927.39
2016-10-07T19:54:03.975Z,927.4
2016-10-07T19:55:04.057Z,927.41
2016-10-07T19:56:04.099Z,927.41
2016-10-07T19:57:04.135Z,927.38
2016-10-07T19:58:04.212Z,927.38
2016-10-07T19:59:04.243Z,927.38
2016-10-07T20:00:04.292Z,927.42
2016-10-07T20:01:04.385Z,927.39
2016-10-07T20:02:04.402Z,927.35
2016-10-07T20:03:04.463Z,927.42
2016-10-07T20:04:04.537Z,927.43
2016-10-07T20:05:04.560Z,927.38
2016-10-07T20:06:04.628Z,927.45
2016-10-07T20:07:04.673Z,927.48
2016-10-07T20:08:04.716Z,927.43
2016-10-07T20:09:04.783Z,927.45
2016-10-07T20:10:04.825Z,927.48
2016-10-07T20:11:04.876Z,927.49
2016-10-07T20:12:04.933Z,927.47
2016-10-07T20:13:04.990Z,927.51
2016-10-07T20:14:05.051Z,927.58
2016-10-07T20:15:05.119Z,927.58
2016-10-07T20:16:05.148Z,927.63
2016-10-07T20:17:05.210Z,927.59
2016-10-07T20:18:05.259Z,927.54
2016-10-07T20:19:05.311Z,927.61
2016-10-07T20:20:05.368Z,927.66
2016-10-07T20:21:05.424Z,927.66
2016-10-07T20:22:05.476Z,927.77
2016-10-07T20:23:05.523Z,927.69
2016-10-07T20:24:05.564Z,927.66
2016-10-07T20:25:05.626Z,927.71
2016-10-07T20:26:05.686Z,927.69
2016-10-07T20:27:05.748Z,927.73
2016-10-07T20:28:05.772Z,927.74
2016-10-07T20:29:05.831Z,927.7
2016-10-07T20:30:05.880Z,927.76
2016-10-07T20:31:05.947Z,927.74
2016-10-07T20:32:06.012Z,927.73
2016-10-07T20:33:06.049Z,927.79
2016-10-07T20:34:06.117Z,927.82
2016-10-07T20:35:06.157Z,927.82
2016-10-07T20:36:06.196Z,927.78
2016-10-07T20:37:06.249Z,927.84
2016-10-07T20:38:06.314Z,927.91
2016-10-07T20:39:06.359Z,927.88
2016-10-07T20:40:06.419Z,927.92
2016-10-07T20:41:06.461Z,927.87
2016-10-07T20:42:06.512Z,927.92
2016-10-07T20:43:06.569Z,927.95
2016-10-07T20:44:06.616Z,928
2016-10-07T20:45:06.659Z,927.99
2016-10-07T20:46:06.725Z,928.02
2016-10-07T20:47:06.795Z,928.04
2016-10-07T20:48:06.821Z,928.04
2016-10-07T20:49:06.874Z,928.01
2016-10-07T20:50:06.922Z,928.02
2016-10-07T20:51:06.973Z,928.04
2016-10-07T20:52:07.045Z,928.03
2016-10-07T20:53:07.090Z,928.02
2016-10-07T20:54:07.133Z,928.06
2016-10-07T20:55:07.193Z,928.06
2016-10-07T20:56:07.252Z,928.1
2016-10-07T20:57:07.304Z,928.06
2016-10-07T20:58:07.335Z,928.09
2016-10-07T20:59:07.395Z,928.12
2016-10-07T21:00:07.437Z,928.18
2016-10-07T21:01:07.519Z,928.2
2016-10-07T21:02:07.556Z,928.22
2016-10-07T21:03:07.605Z,928.26
2016-10-07T21:04:07.657Z,928.22
2016-10-07T21:05:07.722Z,928.27
2016-10-07T21:06:07.750Z,928.25
2016-10-07T21:07:07.837Z,928.23
2016-10-07T21:08:07.870Z,928.22
2016-10-07T21:09:07.930Z,928.23
2016-10-07T21:10:07.986Z,928.3
2016-10-07T21:11:08.011Z,928.24
2016-10-07T21:12:08.070Z,928.34
2016-10-07T21:13:08.127Z,928.3
2016-10-07T21:14:08.370Z,928.33
2016-10-07T21:15:08.241Z,928.33
2016-10-07T21:16:08.268Z,928.31
2016-10-07T21:17:08.315Z,928.36
2016-10-07T21:18:08.371Z,928.32
2016-10-07T21:19:08.447Z,928.36
2016-10-07T21:20:08.471Z,928.4
2016-10-07T21:21:08.553Z,928.33
2016-10-07T21:22:08.592Z,928.38
2016-10-07T21:23:08.868Z,928.42
2016-10-07T21:24:08.683Z,928.43
2016-10-07T21:25:08.752Z,928.49
2016-10-07T21:26:08.782Z,928.46
2016-10-07T21:27:08.850Z,928.45
2016-10-07T21:28:08.900Z,928.44
2016-10-07T21:29:08.955Z,928.41
2016-10-07T21:30:09.008Z,928.4
2016-10-07T21:31:09.061Z,928.44
2016-10-07T21:32:09.119Z,928.48
2016-10-07T21:33:09.140Z,928.42
2016-10-07T21:34:09.227Z,928.44
2016-10-07T21:35:09.247Z,928.47
2016-10-07T21:36:09.312Z,928.49
2016-10-07T21:37:09.354Z,928.54
2016-10-07T21:38:09.408Z,928.51
2016-10-07T21:39:09.447Z,928.57
2016-10-07T21:40:09.506Z,928.6
2016-10-07T21:41:09.573Z,928.62
2016-10-07T21:42:09.601Z,928.64
2016-10-07T21:43:09.661Z,928.59
2016-10-07T21:44:09.716Z,928.63
2016-10-07T21:45:09.787Z,928.65
2016-10-07T21:46:09.810Z,928.62
2016-10-07T21:47:09.869Z,928.67
2016-10-07T21:48:09.916Z,928.71
2016-10-07T21:49:09.966Z,928.76
2016-10-07T21:50:10.016Z,928.74
2016-10-07T21:51:10.070Z,928.74
2016-10-07T21:52:10.127Z,928.79
2016-10-07T21:53:10.194Z,928.85
2016-10-07T21:54:10.221Z,928.82
2016-10-07T21:55:10.299Z,928.8
2016-10-07T21:56:10.327Z,928.8
2016-10-07T21:57:10.377Z,928.81
2016-10-07T21:58:10.453Z,928.84
2016-10-07T21:59:10.477Z,928.8
2016-10-07T22:00:10.564Z,928.8
2016-10-07T22:01:10.620Z,928.82
2016-10-07T22:02:10.641Z,928.8
2016-10-07T22:03:10.705Z,928.81
2016-10-07T22:04:10.760Z,928.8
2016-10-07T22:05:10.795Z,928.82
2016-10-07T22:06:11.041Z,928.84
2016-10-07T22:07:10.891Z,928.86
2016-10-07T22:08:10.940Z,928.88
2016-10-07T22:09:11.016Z,928.86
2016-10-07T22:10:11.068Z,928.83
2016-10-07T22:11:11.106Z,928.86
2016-10-07T22:12:11.160Z,928.89
2016-10-07T22:13:11.196Z,928.9
2016-10-07T22:14:11.263Z,928.91
2016-10-07T22:15:11.307Z,928.9
2016-10-07T22:16:11.380Z,928.91
2016-10-07T22:17:11.409Z,928.94
2016-10-07T22:18:11.456Z,928.88
2016-10-07T22:19:11.507Z,928.88
2016-10-07T22:20:11.573Z,928.96
2016-10-07T22:21:11.609Z,928.93
2016-10-07T22:22:11.661Z,928.93
2016-10-07T22:23:11.723Z,928.96
2016-10-07T22:24:11.788Z,928.97
2016-10-07T22:25:11.836Z,929.02
2016-10-07T22:26:11.898Z,928.98
2016-10-07T22:27:11.919Z,928.98
2016-10-07T22:28:11.969Z,929.01
2016-10-07T22:29:12.047Z,928.96
2016-10-07T22:30:12.073Z,928.95
2016-10-07T22:31:12.150Z,928.93
2016-10-07T22:32:12.177Z,928.93
2016-10-07T22:33:12.231Z,928.94
2016-10-07T22:34:12.279Z,928.91
2016-10-07T22:35:12.329Z,928.88
2016-10-07T22:36:12.381Z,928.91
2016-10-07T22:37:12.435Z,928.91
2016-10-07T22:38:12.512Z,928.94
2016-10-07T22:39:12.535Z,928.98
2016-10-07T22:40:12.614Z,928.97
2016-10-07T22:41:12.639Z,929.01
2016-10-07T22:42:12.696Z,928.96
2016-10-07T22:43:12.744Z,928.96
2016-10-07T22:44:12.805Z,928.96
2016-10-07T22:45:12.857Z,928.94
2016-10-07T22:46:12.912Z,928.91
2016-10-07T22:47:12.950Z,928.92
2016-10-07T22:48:13.035Z,928.99
2016-10-07T22:49:13.063Z,928.97
2016-10-07T22:50:13.107Z,928.97
2016-10-07T22:51:13.183Z,929
2016-10-07T22:52:13.221Z,929.03
2016-10-07T22:53:13.271Z,929.02
2016-10-07T22:54:13.335Z,929.06
2016-10-07T22:55:13.377Z,929.11
2016-10-07T22:56:13.412Z,929.13
2016-10-07T22:57:13.490Z,929.13
2016-10-07T22:58:13.516Z,929.13
2016-10-07T22:59:13.568Z,929.17
2016-10-07T23:00:13.624Z,929.18
2016-10-07T23:01:13.688Z,929.18
2016-10-07T23:02:13.733Z,929.24
2016-10-07T23:03:13.774Z,929.24
2016-10-07T23:04:13.839Z,929.3
2016-10-07T23:05:13.876Z,929.27
2016-10-07T23:06:13.940Z,929.34
2016-10-07T23:07:13.979Z,929.38
2016-10-07T23:08:14.029Z,929.4
2016-10-07T23:09:14.087Z,929.44
2016-10-07T23:10:14.160Z,929.4
2016-10-07T23:11:14.190Z,929.42
2016-10-07T23:12:14.247Z,929.44
2016-10-07T23:13:14.301Z,929.48
2016-10-07T23:14:14.341Z,929.4
2016-10-07T23:15:14.399Z,929.47
2016-10-07T23:16:14.467Z,929.5
2016-10-07T23:17:14.493Z,929.52
2016-10-07T23:18:14.558Z,929.54
2016-10-07T23:19:14.601Z,929.55
2016-10-07T23:20:14.648Z,929.57
2016-10-07T23:21:14.712Z,929.61
2016-10-07T23:22:14.757Z,929.64
2016-10-07T23:23:14.830Z,929.66
2016-10-07T23:24:14.859Z,929.71
2016-10-07T23:25:14.931Z,929.76
2016-10-07T23:26:14.965Z,929.77
2016-10-07T23:27:15.040Z,929.78
2016-10-07T23:28:15.068Z,929.75
2016-10-07T23:29:15.122Z,929.79
2016-10-07T23:30:15.191Z,929.83
2016-10-07T23:31:15.218Z,929.83
2016-10-07T23:32:15.280Z,929.82
2016-10-07T23:33:15.324Z,929.87
2016-10-07T23:34:15.367Z,929.85
2016-10-07T23:35:15.419Z,929.89
2016-10-07T23:36:15.486Z,929.92
2016-10-07T23:37:15.539Z,929.95
2016-10-07T23:38:15.586Z,929.98
2016-10-07T23:39:15.634Z,929.95
2016-10-07T23:40:15.689Z,929.98
2016-10-07T23:41:15.750Z,929.98
2016-10-07T23:42:15.800Z,930
2016-10-07T23:43:15.838Z,930.01
2016-10-07T23:44:15.883Z,930.03
2016-10-07T23:45:15.947Z,930.06
2016-10-07T23:46:16.014Z,930.1
2016-10-07T23:47:16.044Z,930.14
2016-10-07T23:48:16.115Z,930.13
2016-10-07T23:49:16.141Z,930.13
2016-10-07T23:50:16.219Z,930.12
2016-10-07T23:51:16.304Z,930.14
2016-10-07T23:52:16.308Z,930.19
2016-10-07T23:53:16.375Z,930.2
2016-10-07T23:54:16.426Z,930.21
2016-10-07T23:55:16.460Z,930.17
2016-10-07T23:56:16.507Z,930.16
2016-10-07T23:57:16.581Z,930.21
2016-10-07T23:58:16.638Z,930.19
2016-10-07T23:59:16.667Z,930.21
